sensor_id;sensor_type;location;lat;lon;timestamp;pressure;altitude;pressure_sealevel;temperature;humidity
46836;BME280;32573;51.290;6.926;2022-11-25T00:01:41;99758.38;;;8.30;100.00
46836;BME280;32573;51.290;6.926;2022-11-25T00:04:16;99740.97;;;8.29;100.00
46836;BME280;32573;51.290;6.926;2022-11-25T00:06:49;99744.41;;;8.28;100.00
46836;BME280;32573;51.290;6.926;2022-11-25T00:09:31;99744.41;;;8.28;100.00
46836;BME280;32573;51.290;6.926;2022-11-25T00:12:04;99733.97;;;8.28;100.00
46836;BME280;32573;51.290;6.926;2022-11-25T00:14:34;99730.44;;;8.26;100.00
46836;BME280;32573;51.290;6.926;2022-11-25T00:17:17;99724.34;;;8.26;100.00
46836;BME280;32573;51.290;6.926;2022-11-25T00:19:46;99719.13;;;8.26;100.00
46836;BME280;32573;51.290;6.926;2022-11-25T00:22:27;99728.69;;;8.25;100.00
46836;BME280;32573;51.290;6.926;2022-11-25T00:24:58;99718.25;;;8.25;100.00
46836;BME280;32573;51.290;6.926;2022-11-25T00:27:31;99725.22;;;8.26;100.00
46836;BME280;32573;51.290;6.926;2022-11-25T00:30:11;99719.13;;;8.26;100.00
46836;BME280;32573;51.290;6.926;2022-11-25T00:32:53;99709.56;;;8.26;100.00
46836;BME280;32573;51.290;6.926;2022-11-25T00:35:21;99717.41;;;8.26;100.00
46836;BME280;32573;51.290;6.926;2022-11-25T00:37:57;99711.38;;;8.27;100.00
46836;BME280;32573;51.290;6.926;2022-11-25T00:40:32;99713.97;;;8.27;100.00
46836;BME280;32573;51.290;6.926;2022-11-25T00:43:07;99723.53;;;8.28;100.00
46836;BME280;32573;51.290;6.926;2022-11-25T00:45:55;99714.84;;;8.28;100.00
46836;BME280;32573;51.290;6.926;2022-11-25T00:48:29;99715.69;;;8.27;100.00
46836;BME280;32573;51.290;6.926;2022-11-25T00:51:04;99707.91;;;8.28;100.00
46836;BME280;32573;51.290;6.926;2022-11-25T00:53:47;99712.31;;;8.29;100.00
46836;BME280;32573;51.290;6.926;2022-11-25T00:56:25;99709.69;;;8.29;100.00
46836;BME280;32573;51.290;6.926;2022-11-25T00:59:00;99715.78;;;8.30;100.00
46836;BME280;32573;51.290;6.926;2022-11-25T01:01:34;99717.53;;;8.31;100.00
46836;BME280;32573;51.290;6.926;2022-11-25T01:04:08;99707.97;;;8.30;100.00
46836;BME280;32573;51.290;6.926;2022-11-25T01:06:39;99711.44;;;8.30;100.00
46836;BME280;32573;51.290;6.926;2022-11-25T01:09:13;99708.84;;;8.30;100.00
46836;BME280;32573;51.290;6.926;2022-11-25T01:11:45;99715.78;;;8.30;100.00
46836;BME280;32573;51.290;6.926;2022-11-25T01:14:21;99710.56;;;8.30;100.00
46836;BME280;32573;51.290;6.926;2022-11-25T01:16:53;99712.31;;;8.29;100.00
46836;BME280;32573;51.290;6.926;2022-11-25T01:19:26;99714.03;;;8.29;100.00
46836;BME280;32573;51.290;6.926;2022-11-25T01:21:59;99711.44;;;8.30;100.00
46836;BME280;32573;51.290;6.926;2022-11-25T01:24:31;99713.22;;;8.31;100.00
46836;BME280;32573;51.290;6.926;2022-11-25T01:27:04;99711.44;;;8.30;100.00
46836;BME280;32573;51.290;6.926;2022-11-25T01:29:39;99714.06;;;8.30;100.00
46836;BME280;32573;51.290;6.926;2022-11-25T01:32:09;99718.44;;;8.31;100.00
46836;BME280;32573;51.290;6.926;2022-11-25T01:34:40;99709.78;;;8.32;100.00
46836;BME280;32573;51.290;6.926;2022-11-25T01:37:12;99714.13;;;8.33;100.00
46836;BME280;32573;51.290;6.926;2022-11-25T01:39:54;99715.06;;;8.35;100.00
46836;BME280;32573;51.290;6.926;2022-11-25T01:42:31;99714.28;;;8.38;100.00
46836;BME280;32573;51.290;6.926;2022-11-25T01:45:32;99701.31;;;8.39;100.00
46836;BME280;32573;51.290;6.926;2022-11-25T01:48:22;99709.19;;;8.41;100.00
46836;BME280;32573;51.290;6.926;2022-11-25T01:51:00;99707.50;;;8.43;100.00
46836;BME280;32573;51.290;6.926;2022-11-25T01:53:34;99715.38;;;8.45;100.00
46836;BME280;32573;51.290;6.926;2022-11-25T01:56:03;99710.25;;;8.48;100.00
46836;BME280;32573;51.290;6.926;2022-11-25T01:58:39;99708.56;;;8.50;100.00
46836;BME280;32573;51.290;6.926;2022-11-25T02:01:11;99711.25;;;8.51;100.00
46836;BME280;32573;51.290;6.926;2022-11-25T02:03:48;99706.97;;;8.55;100.00
46836;BME280;32573;51.290;6.926;2022-11-25T02:06:23;99705.25;;;8.55;100.00
46836;BME280;32573;51.290;6.926;2022-11-25T02:09:02;99712.28;;;8.58;100.00
46836;BME280;32573;51.290;6.926;2022-11-25T02:11:38;99704.44;;;8.58;100.00
46836;BME280;32573;51.290;6.926;2022-11-25T02:14:13;99704.53;;;8.61;100.00
46836;BME280;32573;51.290;6.926;2022-11-25T02:16:47;99708.94;;;8.62;100.00
46836;BME280;32573;51.290;6.926;2022-11-25T02:19:24;99705.47;;;8.63;100.00
46836;BME280;32573;51.290;6.926;2022-11-25T02:22:00;99698.56;;;8.65;100.00
46836;BME280;32573;51.290;6.926;2022-11-25T02:24:42;99689.88;;;8.66;100.00
46836;BME280;32573;51.290;6.926;2022-11-25T02:27:16;99686.47;;;8.67;100.00
46836;BME280;32573;51.290;6.926;2022-11-25T02:29:49;99686.53;;;8.70;100.00
46836;BME280;32573;51.290;6.926;2022-11-25T02:32:22;99681.31;;;8.70;100.00
46836;BME280;32573;51.290;6.926;2022-11-25T02:34:58;99681.41;;;8.73;100.00
46836;BME280;32573;51.290;6.926;2022-11-25T02:37:29;99683.19;;;8.74;100.00
46836;BME280;32573;51.290;6.926;2022-11-25T02:39:59;99686.72;;;8.76;100.00
46836;BME280;32573;51.290;6.926;2022-11-25T02:42:31;99679.78;;;8.78;100.00
46836;BME280;32573;51.290;6.926;2022-11-25T02:45:04;99678.13;;;8.80;100.00
46836;BME280;32573;51.290;6.926;2022-11-25T02:47:39;99673.81;;;8.82;100.00
46836;BME280;32573;51.290;6.926;2022-11-25T02:50:09;99672.16;;;8.84;100.00
46836;BME280;32573;51.290;6.926;2022-11-25T02:52:43;99675.69;;;8.87;100.00
46836;BME280;32573;51.290;6.926;2022-11-25T02:55:15;99673.94;;;8.87;100.00
46836;BME280;32573;51.290;6.926;2022-11-25T02:57:52;99687.94;;;8.91;100.00
46836;BME280;32573;51.290;6.926;2022-11-25T03:00:23;99681.91;;;8.92;100.00
46836;BME280;32573;51.290;6.926;2022-11-25T03:02:53;99675.81;;;8.93;100.00
46836;BME280;32573;51.290;6.926;2022-11-25T03:05:25;99675.88;;;8.94;100.00
46836;BME280;32573;51.290;6.926;2022-11-25T03:08:00;99687.28;;;8.98;100.00
46836;BME280;32573;51.290;6.926;2022-11-25T03:10:39;99694.28;;;8.99;100.00
46836;BME280;32573;51.290;6.926;2022-11-25T03:13:12;99696.91;;;9.00;100.00
46836;BME280;32573;51.290;6.926;2022-11-25T03:15:44;99696.97;;;9.02;100.00
46836;BME280;32573;51.290;6.926;2022-11-25T03:18:13;99694.38;;;9.03;100.00
46836;BME280;32573;51.290;6.926;2022-11-25T03:20:50;99698.78;;;9.04;100.00
46836;BME280;32573;51.290;6.926;2022-11-25T03:23:22;99701.41;;;9.06;100.00
46836;BME280;32573;51.290;6.926;2022-11-25T03:26:03;99698.84;;;9.07;100.00
46836;BME280;32573;51.290;6.926;2022-11-25T03:28:45;99692.75;;;9.07;100.00
46836;BME280;32573;51.290;6.926;2022-11-25T03:31:18;99694.47;;;9.06;100.00
46836;BME280;32573;51.290;6.926;2022-11-25T03:33:54;99698.03;;;9.09;100.00
46836;BME280;32573;51.290;6.926;2022-11-25T03:36:27;99706.72;;;9.09;100.00
46836;BME280;32573;51.290;6.926;2022-11-25T03:42:08;99712.03;;;9.12;100.00
46836;BME280;32573;51.290;6.926;2022-11-25T03:44:45;99711.16;;;9.13;100.00
46836;BME280;32573;51.290;6.926;2022-11-25T03:47:21;99713.78;;;9.13;100.00
46836;BME280;32573;51.290;6.926;2022-11-25T03:49:58;99715.59;;;9.16;100.00
46836;BME280;32573;51.290;6.926;2022-11-25T03:52:28;99713.88;;;9.16;100.00
46836;BME280;32573;51.290;6.926;2022-11-25T03:54:57;99719.13;;;9.18;100.00
46836;BME280;32573;51.290;6.926;2022-11-25T03:57:34;99725.22;;;9.18;100.00
46836;BME280;32573;51.290;6.926;2022-11-25T04:00:21;99727.00;;;9.19;100.00
46836;BME280;32573;51.290;6.926;2022-11-25T04:03:05;99723.53;;;9.20;100.00
46836;BME280;32573;51.290;6.926;2022-11-25T04:05:47;99728.81;;;9.22;100.00
46836;BME280;32573;51.290;6.926;2022-11-25T04:08:17;99726.22;;;9.23;100.00
46836;BME280;32573;51.290;6.926;2022-11-25T04:10:48;99738.47;;;9.24;100.00
46836;BME280;32573;51.290;6.926;2022-11-25T04:13:34;99735.00;;;9.25;100.00
46836;BME280;32573;51.290;6.926;2022-11-25T04:16:12;99737.59;;;9.25;100.00
46836;BME280;32573;51.290;6.926;2022-11-25T04:19:05;99742.00;;;9.26;100.00
46836;BME280;32573;51.290;6.926;2022-11-25T04:22:13;99742.88;;;9.27;100.00
46836;BME280;32573;51.290;6.926;2022-11-25T04:24:57;99746.31;;;9.26;100.00
46836;BME280;32573;51.290;6.926;2022-11-25T04:27:28;99744.56;;;9.25;100.00
46836;BME280;32573;51.290;6.926;2022-11-25T04:30:01;99743.69;;;9.24;100.00
46836;BME280;32573;51.290;6.926;2022-11-25T04:32:38;99748.91;;;9.24;100.00
46836;BME280;32573;51.290;6.926;2022-11-25T04:35:23;99745.34;;;9.22;100.00
46836;BME280;32573;51.290;6.926;2022-11-25T04:37:57;99761.03;;;9.22;100.00
46836;BME280;32573;51.290;6.926;2022-11-25T04:40:37;99748.81;;;9.21;100.00
46836;BME280;32573;51.290;6.926;2022-11-25T04:43:17;99759.28;;;9.21;100.00
46836;BME280;32573;51.290;6.926;2022-11-25T04:45:59;99752.25;;;9.20;100.00
46836;BME280;32573;51.290;6.926;2022-11-25T04:48:48;99758.34;;;9.19;100.00
46836;BME280;32573;51.290;6.926;2022-11-25T04:51:28;99763.50;;;9.18;100.00
46836;BME280;32573;51.290;6.926;2022-11-25T04:54:16;99771.34;;;9.18;100.00
46836;BME280;32573;51.290;6.926;2022-11-25T04:56:50;99766.09;;;9.16;100.00
46836;BME280;32573;51.290;6.926;2022-11-25T04:59:44;99758.22;;;9.15;100.00
46836;BME280;32573;51.290;6.926;2022-11-25T05:02:37;99766.91;;;9.15;100.00
46836;BME280;32573;51.290;6.926;2022-11-25T05:05:28;99769.53;;;9.15;100.00
46836;BME280;32573;51.290;6.926;2022-11-25T05:07:58;99767.78;;;9.14;100.00
46836;BME280;32573;51.290;6.926;2022-11-25T05:10:54;99768.59;;;9.13;100.00
46836;BME280;32573;51.290;6.926;2022-11-25T05:13:26;99776.44;;;9.13;100.00
46836;BME280;32573;51.290;6.926;2022-11-25T05:16:00;99786.00;;;9.13;100.00
46836;BME280;32573;51.290;6.926;2022-11-25T05:18:38;99795.56;;;9.12;100.00
46836;BME280;32573;51.290;6.926;2022-11-25T05:21:35;99779.84;;;9.11;100.00
46836;BME280;32573;51.290;6.926;2022-11-25T05:24:08;99785.94;;;9.10;100.00
46836;BME280;32573;51.290;6.926;2022-11-25T05:26:44;99790.28;;;9.09;100.00
46836;BME280;32573;51.290;6.926;2022-11-25T05:29:20;99791.09;;;9.08;100.00
46836;BME280;32573;51.290;6.926;2022-11-25T05:31:50;99791.94;;;9.07;100.00
46836;BME280;32573;51.290;6.926;2022-11-25T05:34:25;99798.84;;;9.05;100.00
46836;BME280;32573;51.290;6.926;2022-11-25T05:36:57;99792.69;;;9.03;100.00
46836;BME280;32573;51.290;6.926;2022-11-25T05:39:28;99801.38;;;9.02;100.00
46836;BME280;32573;51.290;6.926;2022-11-25T05:42:18;99800.44;;;9.00;100.00
46836;BME280;32573;51.290;6.926;2022-11-25T05:44:48;99804.72;;;8.98;100.00
46836;BME280;32573;51.290;6.926;2022-11-25T05:47:18;99804.72;;;8.96;100.00
46836;BME280;32573;51.290;6.926;2022-11-25T05:49:48;99809.00;;;8.94;100.00
46836;BME280;32573;51.290;6.926;2022-11-25T05:52:27;99807.19;;;8.92;100.00
46836;BME280;32573;51.290;6.926;2022-11-25T05:55:01;99812.41;;;8.92;100.00
46836;BME280;32573;51.290;6.926;2022-11-25T05:57:31;99813.19;;;8.89;100.00
46836;BME280;32573;51.290;6.926;2022-11-25T06:00:06;99810.53;;;8.88;100.00
46836;BME280;32573;51.290;6.926;2022-11-25T06:02:48;99814.00;;;8.87;100.00
46836;BME280;32573;51.290;6.926;2022-11-25T06:05:23;99817.44;;;8.85;100.00
46836;BME280;32573;51.290;6.926;2022-11-25T06:07:53;99820.88;;;8.84;100.00
46836;BME280;32573;51.290;6.926;2022-11-25T06:10:25;99821.69;;;8.82;100.00
46836;BME280;32573;51.290;6.926;2022-11-25T06:13:04;99826.03;;;8.81;100.00
46836;BME280;32573;51.290;6.926;2022-11-25T06:15:39;99827.69;;;8.79;100.00
46836;BME280;32573;51.290;6.926;2022-11-25T06:18:16;99824.22;;;8.79;100.00
46836;BME280;32573;51.290;6.926;2022-11-25T06:20:57;99832.84;;;8.76;100.00
46836;BME280;32573;51.290;6.926;2022-11-25T06:23:37;99840.66;;;8.76;100.00
46836;BME280;32573;51.290;6.926;2022-11-25T06:26:11;99839.72;;;8.74;100.00
46836;BME280;32573;51.290;6.926;2022-11-25T06:28:47;99845.78;;;8.73;100.00
46836;BME280;32573;51.290;6.926;2022-11-25T06:31:22;99843.13;;;8.72;100.00
46836;BME280;32573;51.290;6.926;2022-11-25T06:34:05;99852.69;;;8.71;100.00
46836;BME280;32573;51.290;6.926;2022-11-25T06:36:39;99856.13;;;8.70;100.00
46836;BME280;32573;51.290;6.926;2022-11-25T06:39:10;99863.06;;;8.70;100.00
46836;BME280;32573;51.290;6.926;2022-11-25T06:41:40;99858.72;;;8.70;100.00
46836;BME280;32573;51.290;6.926;2022-11-25T06:44:38;99865.63;;;8.68;100.00
46836;BME280;32573;51.290;6.926;2022-11-25T06:47:23;99862.97;;;8.67;100.00
46836;BME280;32573;51.290;6.926;2022-11-25T06:49:58;99872.50;;;8.66;100.00
46836;BME280;32573;51.290;6.926;2022-11-25T06:55:28;99869.00;;;8.64;100.00
46836;BME280;32573;51.290;6.926;2022-11-25T06:58:26;99879.44;;;8.64;100.00
46836;BME280;32573;51.290;6.926;2022-11-25T07:01:11;99882.84;;;8.63;100.00
46836;BME280;32573;51.290;6.926;2022-11-25T07:04:06;99882.84;;;8.63;100.00
46836;BME280;32573;51.290;6.926;2022-11-25T07:06:48;99892.41;;;8.62;100.00
46836;BME280;32573;51.290;6.926;2022-11-25T07:09:18;99895.88;;;8.61;100.00
46836;BME280;32573;51.290;6.926;2022-11-25T07:11:55;99900.19;;;8.61;100.00
46836;BME280;32573;51.290;6.926;2022-11-25T07:14:24;99900.19;;;8.61;100.00
46836;BME280;32573;51.290;6.926;2022-11-25T07:17:02;99905.41;;;8.61;100.00
46836;BME280;32573;51.290;6.926;2022-11-25T07:19:42;99912.41;;;8.62;100.00
46836;BME280;32573;51.290;6.926;2022-11-25T07:22:27;99914.94;;;8.60;100.00
46836;BME280;32573;51.290;6.926;2022-11-25T07:25:11;99926.25;;;8.61;100.00
46836;BME280;32573;51.290;6.926;2022-11-25T07:28:03;99921.03;;;8.61;100.00
46836;BME280;32573;51.290;6.926;2022-11-25T07:34:06;99927.13;;;8.60;100.00
46836;BME280;32573;51.290;6.926;2022-11-25T07:36:56;99930.56;;;8.59;100.00
46836;BME280;32573;51.290;6.926;2022-11-25T07:39:38;99927.03;;;8.57;100.00
46836;BME280;32573;51.290;6.926;2022-11-25T07:42:40;99933.97;;;8.56;100.00
46836;BME280;32573;51.290;6.926;2022-11-25T07:45:35;99939.13;;;8.55;100.00
46836;BME280;32573;51.290;6.926;2022-11-25T07:48:11;99953.91;;;8.54;100.00
46836;BME280;32573;51.290;6.926;2022-11-25T07:50:44;99962.53;;;8.53;100.00
46836;BME280;32573;51.290;6.926;2022-11-25T07:53:24;99963.38;;;8.52;100.00
46836;BME280;32573;51.290;6.926;2022-11-25T07:56:02;99969.50;;;8.53;100.00
46836;BME280;32573;51.290;6.926;2022-11-25T07:58:39;99963.38;;;8.52;100.00
46836;BME280;32573;51.290;6.926;2022-11-25T08:01:17;99965.16;;;8.53;100.00
46836;BME280;32573;51.290;6.926;2022-11-25T08:03:52;99973.88;;;8.54;100.00
46836;BME280;32573;51.290;6.926;2022-11-25T08:06:23;99979.13;;;8.55;100.00
46836;BME280;32573;51.290;6.926;2022-11-25T08:08:56;99979.19;;;8.57;100.00
46836;BME280;32573;51.290;6.926;2022-11-25T08:11:29;99983.63;;;8.59;100.00
46836;BME280;32573;51.290;6.926;2022-11-25T08:14:07;99991.47;;;8.61;100.00
46836;BME280;32573;51.290;6.926;2022-11-25T08:16:41;99983.78;;;8.64;100.00
46836;BME280;32573;51.290;6.926;2022-11-25T08:19:16;99989.91;;;8.66;100.00
46836;BME280;32573;51.290;6.926;2022-11-25T08:21:55;99990.84;;;8.68;100.00
46836;BME280;32573;51.290;6.926;2022-11-25T08:24:29;99991.84;;;8.72;100.00
46836;BME280;32573;51.290;6.926;2022-11-25T08:26:59;99999.72;;;8.73;100.00
46836;BME280;32573;51.290;6.926;2022-11-25T08:29:33;100006.72;;;8.74;100.00
46836;BME280;32573;51.290;6.926;2022-11-25T08:32:06;100005.94;;;8.77;100.00
46836;BME280;32573;51.290;6.926;2022-11-25T08:34:39;100019.00;;;8.78;100.00
46836;BME280;32573;51.290;6.926;2022-11-25T08:37:25;100027.78;;;8.80;100.00
46836;BME280;32573;51.290;6.926;2022-11-25T08:39:59;100027.78;;;8.80;100.00
46836;BME280;32573;51.290;6.926;2022-11-25T08:42:33;100031.34;;;8.82;100.00
46836;BME280;32573;51.290;6.926;2022-11-25T08:45:05;100039.22;;;8.84;100.00
46836;BME280;32573;51.290;6.926;2022-11-25T08:47:42;100030.47;;;8.83;100.00
46836;BME280;32573;51.290;6.926;2022-11-25T08:50:23;100031.44;;;8.85;100.00
46836;BME280;32573;51.290;6.926;2022-11-25T08:53:09;100033.22;;;8.87;100.00
46836;BME280;32573;51.290;6.926;2022-11-25T08:55:40;100037.59;;;8.88;100.00
46836;BME280;32573;51.290;6.926;2022-11-25T08:58:37;100041.06;;;8.87;100.00
46836;BME280;32573;51.290;6.926;2022-11-25T09:01:13;100034.97;;;8.88;100.00
46836;BME280;32573;51.290;6.926;2022-11-25T09:03:58;100030.63;;;8.88;100.00
46836;BME280;32573;51.290;6.926;2022-11-25T09:06:42;100036.78;;;8.89;100.00
46836;BME280;32573;51.290;6.926;2022-11-25T09:09:13;100035.06;;;8.91;100.00
46836;BME280;32573;51.290;6.926;2022-11-25T09:11:43;100043.84;;;8.93;100.00
46836;BME280;32573;51.290;6.926;2022-11-25T09:14:39;100052.56;;;8.93;100.00
46836;BME280;32573;51.290;6.926;2022-11-25T09:17:39;100050.94;;;8.97;100.00
46836;BME280;32573;51.290;6.926;2022-11-25T09:20:30;100057.13;;;8.99;100.00
46836;BME280;32573;51.290;6.926;2022-11-25T09:23:09;100062.44;;;9.03;100.00
46836;BME280;32573;51.290;6.926;2022-11-25T09:26:19;100066.88;;;9.06;100.00
46836;BME280;32573;51.290;6.926;2022-11-25T09:29:02;100067.88;;;9.10;100.00
46836;BME280;32573;51.290;6.926;2022-11-25T09:31:39;100070.56;;;9.11;100.00
46836;BME280;32573;51.290;6.926;2022-11-25T09:34:22;100067.19;;;9.15;100.00
46836;BME280;32573;51.290;6.926;2022-11-25T09:37:12;100082.16;;;9.21;100.00
46836;BME280;32573;51.290;6.926;2022-11-25T09:39:57;100077.16;;;9.27;100.00
46836;BME280;32573;51.290;6.926;2022-11-25T09:42:39;100082.56;;;9.33;100.00
46836;BME280;32573;51.290;6.926;2022-11-25T09:45:43;100087.13;;;9.40;100.00
46836;BME280;32573;51.290;6.926;2022-11-25T09:48:57;100088.22;;;9.47;100.00
46836;BME280;32573;51.290;6.926;2022-11-25T09:51:39;100085.75;;;9.52;100.00
46836;BME280;32573;51.290;6.926;2022-11-25T09:54:47;100099.00;;;9.58;100.00
46836;BME280;32573;51.290;6.926;2022-11-25T09:58:14;100101.75;;;9.62;100.00
46836;BME280;32573;51.290;6.926;2022-11-25T10:01:43;100104.44;;;9.65;100.00
46836;BME280;32573;51.290;6.926;2022-11-25T10:04:35;100100.25;;;9.70;100.00
46836;BME280;32573;51.290;6.926;2022-11-25T10:07:17;100110.81;;;9.74;100.00
46836;BME280;32573;51.290;6.926;2022-11-25T10:10:36;100113.53;;;9.77;100.00
46836;BME280;32573;51.290;6.926;2022-11-25T10:16:34;100125.16;;;9.88;100.00
46836;BME280;32573;51.290;6.926;2022-11-25T10:19:56;100123.50;;;9.90;100.00
46836;BME280;32573;51.290;6.926;2022-11-25T10:23:00;100125.38;;;9.94;100.00
46836;BME280;32573;51.290;6.926;2022-11-25T10:26:09;100128.13;;;9.99;100.00
46836;BME280;32573;51.290;6.926;2022-11-25T10:29:04;100137.88;;;10.04;100.00
46836;BME280;32573;51.290;6.926;2022-11-25T10:31:44;100134.50;;;10.08;100.00
46836;BME280;32573;51.290;6.926;2022-11-25T10:34:22;100137.28;;;10.14;100.00
46836;BME280;32573;51.290;6.926;2022-11-25T10:37:15;100134.81;;;10.19;100.00
46836;BME280;32573;51.290;6.926;2022-11-25T10:40:12;100139.28;;;10.23;100.00
46836;BME280;32573;51.290;6.926;2022-11-25T10:43:31;100136.81;;;10.28;100.00
46836;BME280;32573;51.290;6.926;2022-11-25T10:46:15;100144.72;;;10.29;100.00
46836;BME280;32573;51.290;6.926;2022-11-25T10:52:49;100145.88;;;10.39;100.00
46836;BME280;32573;51.290;6.926;2022-11-25T10:55:29;100148.63;;;10.44;100.00
46836;BME280;32573;51.290;6.926;2022-11-25T10:58:24;100158.38;;;10.49;100.00
46836;BME280;32573;51.290;6.926;2022-11-25T11:01:05;100160.25;;;10.55;100.00
46836;BME280;32573;51.290;6.926;2022-11-25T11:03:53;100159.44;;;10.56;100.00
46836;BME280;32573;51.290;6.926;2022-11-25T11:06:49;100152.50;;;10.58;100.00
46836;BME280;32573;51.290;6.926;2022-11-25T11:10:17;100162.16;;;10.61;100.00
46836;BME280;32573;51.290;6.926;2022-11-25T11:13:19;100169.19;;;10.62;100.00
46836;BME280;32573;51.290;6.926;2022-11-25T11:15:53;100169.19;;;10.62;100.00
46836;BME280;32573;51.290;6.926;2022-11-25T11:18:28;100167.50;;;10.64;100.00
46836;BME280;32573;51.290;6.926;2022-11-25T11:24:29;100170.28;;;10.70;100.00
46836;BME280;32573;51.290;6.926;2022-11-25T11:27:20;100165.97;;;10.72;100.00
46836;BME280;32573;51.290;6.926;2022-11-25T11:31:05;100164.31;;;10.75;100.00
46836;BME280;32573;51.290;6.926;2022-11-25T11:33:53;100172.28;;;10.80;100.00
46836;BME280;32573;51.290;6.926;2022-11-25T11:37:01;100170.66;;;10.84;100.00
46836;BME280;32573;51.290;6.926;2022-11-25T11:40:22;100183.84;;;10.88;100.00
46836;BME280;32573;51.290;6.926;2022-11-25T11:43:01;100180.41;;;10.89;100.00
46836;BME280;32573;51.290;6.926;2022-11-25T11:46:16;100180.47;;;10.92;100.00
46836;BME280;32573;51.290;6.926;2022-11-25T11:49:16;100183.16;;;10.94;100.00
46836;BME280;32573;51.290;6.926;2022-11-25T11:52:11;100181.50;;;10.97;100.00
46836;BME280;32573;51.290;6.926;2022-11-25T11:55:13;100185.00;;;10.98;100.00
46836;BME280;32573;51.290;6.926;2022-11-25T11:58:04;100187.59;;;10.96;100.00
46836;BME280;32573;51.290;6.926;2022-11-25T12:01:18;100189.34;;;10.97;100.00
46836;BME280;32573;51.290;6.926;2022-11-25T12:04:36;100192.91;;;10.99;100.00
46836;BME280;32573;51.290;6.926;2022-11-25T12:07:48;100200.81;;;11.02;100.00
46836;BME280;32573;51.290;6.926;2022-11-25T12:10:32;100205.25;;;11.04;100.00
46836;BME280;32573;51.290;6.926;2022-11-25T12:13:24;100203.53;;;11.06;100.00
46836;BME280;32573;51.290;6.926;2022-11-25T12:16:18;100208.88;;;11.09;100.00
46836;BME280;32573;51.290;6.926;2022-11-25T12:19:11;100209.81;;;11.12;100.00
46836;BME280;32573;51.290;6.926;2022-11-25T12:22:23;100214.19;;;11.12;100.00
46836;BME280;32573;51.290;6.926;2022-11-25T12:25:20;100215.94;;;11.13;100.00
46836;BME280;32573;51.290;6.926;2022-11-25T12:28:06;100227.34;;;11.13;100.00
46836;BME280;32573;51.290;6.926;2022-11-25T12:31:17;100229.09;;;11.14;100.00
46836;BME280;32573;51.290;6.926;2022-11-25T12:34:21;100231.75;;;11.16;100.00
46836;BME280;32573;51.290;6.926;2022-11-25T12:37:22;100231.84;;;11.19;100.00
46836;BME280;32573;51.290;6.926;2022-11-25T12:40:15;100230.22;;;11.24;100.00
46836;BME280;32573;51.290;6.926;2022-11-25T12:43:21;100239.91;;;11.28;100.00
46836;BME280;32573;51.290;6.926;2022-11-25T12:46:24;100243.47;;;11.30;100.00
46836;BME280;32573;51.290;6.926;2022-11-25T12:49:06;100241.75;;;11.31;100.00
46836;BME280;32573;51.290;6.926;2022-11-25T12:52:33;100241.78;;;11.32;100.00
46836;BME280;32573;51.290;6.926;2022-11-25T12:55:18;100253.28;;;11.37;100.00
46836;BME280;32573;51.290;6.926;2022-11-25T12:58:37;100251.66;;;11.42;100.00
46836;BME280;32573;51.290;6.926;2022-11-25T13:02:03;100268.31;;;11.44;100.00
46836;BME280;32573;51.290;6.926;2022-11-25T13:05:40;100268.44;;;11.49;100.00
46836;BME280;32573;51.290;6.926;2022-11-25T13:08:50;100266.69;;;11.50;100.00
46836;BME280;32573;51.290;6.926;2022-11-25T13:11:58;100270.19;;;11.50;100.00
46836;BME280;32573;51.290;6.926;2022-11-25T13:18:13;100292.97;;;11.51;100.00
46836;BME280;32573;51.290;6.926;2022-11-25T13:21:08;100278.91;;;11.49;100.00
46836;BME280;32573;51.290;6.926;2022-11-25T13:23:54;100288.53;;;11.49;100.00
46836;BME280;32573;51.290;6.926;2022-11-25T13:26:50;100288.53;;;11.49;100.00
46836;BME280;32573;51.290;6.926;2022-11-25T13:30:05;100314.63;;;11.45;100.00
46836;BME280;32573;51.290;6.926;2022-11-25T13:33:55;100303.25;;;11.45;100.00
46836;BME280;32573;51.290;6.926;2022-11-25T13:36:51;100312.94;;;11.48;100.00
46836;BME280;32573;51.290;6.926;2022-11-25T13:39:47;100313.88;;;11.50;100.00
46836;BME280;32573;51.290;6.926;2022-11-25T13:42:52;100307.75;;;11.49;100.00
46836;BME280;32573;51.290;6.926;2022-11-25T13:45:44;100318.28;;;11.51;100.00
46836;BME280;32573;51.290;6.926;2022-11-25T13:48:38;100329.72;;;11.54;100.00
46836;BME280;32573;51.290;6.926;2022-11-25T13:51:53;100326.34;;;11.58;100.00
46836;BME280;32573;51.290;6.926;2022-11-25T13:54:46;100324.69;;;11.62;100.00
46836;BME280;32573;51.290;6.926;2022-11-25T13:57:26;100337.00;;;11.64;100.00
46836;BME280;32573;51.290;6.926;2022-11-25T14:03:43;100332.81;;;11.71;100.00
46836;BME280;32573;51.290;6.926;2022-11-25T14:06:34;100338.13;;;11.74;100.00
46836;BME280;32573;51.290;6.926;2022-11-25T14:09:36;100337.38;;;11.78;100.00
46836;BME280;32573;51.290;6.926;2022-11-25T14:12:32;100340.94;;;11.82;100.00
46836;BME280;32573;51.290;6.926;2022-11-25T14:15:50;100342.69;;;11.83;100.00
46836;BME280;32573;51.290;6.926;2022-11-25T14:19:01;100349.72;;;11.84;100.00
46836;BME280;32573;51.290;6.926;2022-11-25T14:22:21;100360.09;;;11.79;100.00
46836;BME280;32573;51.290;6.926;2022-11-25T14:25:20;100355.63;;;11.75;100.00
46836;BME280;32573;51.290;6.926;2022-11-25T14:28:22;100364.28;;;11.71;100.00
46836;BME280;32573;51.290;6.926;2022-11-25T14:30:57;100364.16;;;11.68;100.00
46836;BME280;32573;51.290;6.926;2022-11-25T14:33:45;100363.16;;;11.63;100.00
46836;BME280;32573;51.290;6.926;2022-11-25T14:36:34;100370.06;;;11.59;100.00
46836;BME280;32573;51.290;6.926;2022-11-25T14:39:15;100377.88;;;11.58;100.00
46836;BME280;32573;51.290;6.926;2022-11-25T14:41:58;100374.34;;;11.56;100.00
46836;BME280;32573;51.290;6.926;2022-11-25T14:44:45;100379.59;;;11.56;100.00
46836;BME280;32573;51.290;6.926;2022-11-25T14:47:24;100376.06;;;11.55;100.00
46836;BME280;32573;51.290;6.926;2022-11-25T14:50:01;100386.53;;;11.54;100.00